Grande-Vallee, Canada
Current Conditions -  °F | °C
As of 2:00 AM on Friday 19 Dec 2014 (Local Time) from CYGP Reporting Station
Light Snow Light Snow  
Wind Chill: 20°   Ceiling: 1400
Heat Index: 28°   Visibility: 6mi
Dew Point: 25°   Wind: 8mph
Humidity: 86%   Direction: 320°NW
Pressure: 29.62"   Gusts: 20mph
Location:  49.22°N, 65.13°W
Report Text: CYGP 190700Z 32007G17KT 280V360 6SM -SN BKN014 OVC025 M02/M04 A2962 RMK SC6SC2 SLP032
Loading
Personal Weather Stations






























Interactive Weather Map New forecast layout! Learn more

10-Day Weather Forecast

Advertisements
Track Severe Weather on mobile